Webcam Richtung Westen

Webcam27

Webcam Richtung Norden

Webcam36

Webcam Richtung Osten

Webcam09

Wetter(Würzburg):
040230Z AUTO 20002G03KT 18KM OVC100 06/03 Q1022
		
Thu 4.03.2021, 02:30 UTC

Sichtweite bis zu 18 km
Wind aus 200° mit 02kt, in Böen bis zu 03kt
bedeckter Himmel (8 Achtel) bei 10000 Fuß
Temperatur: 6 °C
Taupunkt: 3 °C
QNH: 1022 hPa
                         Heute        Morgen
                         04.03        05.03
--------------------------------------------
Beginn der Dämmerung     05:25        05:23
Sonnenaufgang            05:57        05:55
Sonnenuntergang          17:06        17:08
Ende der Dämmerung       17:39        17:40

Alle Zeiten in UTC